Time;durP1;ratioP1;P1;durP2;ratioP2;P2;SDS_P1;SDS_P2;PMS_P1;PMS_P2;Temp;Humidity;BMP_temperature;BMP_pressure;BME280_temperature;BME280_humidity;BME280_pressure;Samples;Min_cycle;Max_cycle;Signal;HPM_P1;HPM_P2
2021/06/15 06:39:17;;;;;;;8.30;2.75;;;18.10;91.40;;;;;;4878583;29;20410;-93
2021/06/15 06:42:50;;;;;;;19.67;3.38;;;18.20;91.70;;;;;;4887423;29;20056;-91
2021/06/15 06:45:55;;;;;;;11.35;3.10;;;18.10;91.50;;;;;;4863086;29;20041;-90
2021/06/15 06:48:53;;;;;;;7.90;3.42;;;18.40;91.50;;;;;;4885289;29;20052;-91
2021/06/15 06:51:24;;;;;;;5.82;2.88;;;18.50;92.10;;;;;;4859253;29;20060;-86
2021/06/15 06:54:06;;;;;;;12.68;3.30;;;18.60;91.50;;;;;;4858294;29;20500;-89
2021/06/15 06:56:56;;;;;;;11.00;3.03;;;18.70;91.80;;;;;;4859042;29;20037;-92
2021/06/15 06:59:46;;;;;;;17.02;2.97;;;18.70;91.70;;;;;;4876171;29;20041;-85
2021/06/15 07:02:15;;;;;;;26.20;4.25;;;18.80;91.70;;;;;;4873976;29;20049;-88
2021/06/15 07:04:46;;;;;;;12.82;3.22;;;18.90;91.80;;;;;;4875371;29;20053;-91
2021/06/15 07:07:35;;;;;;;10.85;3.00;;;19.00;91.50;;;;;;4846801;29;20055;-86
2021/06/15 07:10:05;;;;;;;11.25;3.17;;;19.00;91.80;;;;;;4875946;29;20069;-93
2021/06/15 07:12:45;;;;;;;9.23;3.25;;;19.10;91.80;;;;;;4891028;29;20064;-90
2021/06/15 07:16:16;;;;;;;10.68;3.30;;;19.10;92.10;;;;;;4861173;29;20057;-88
2021/06/15 07:18:45;;;;;;;8.63;3.08;;;19.20;91.90;;;;;;4837140;29;20068;-88
2021/06/15 07:21:17;;;;;;;18.80;3.63;;;19.20;92.10;;;;;;4852861;29;20049;-88
2021/06/15 07:23:46;;;;;;;17.07;3.60;;;19.30;92.20;;;;;;4866062;29;20050;-88
2021/06/15 07:26:24;;;;;;;16.83;4.35;;;19.30;92.30;;;;;;4948585;23;20056;-89
2021/06/15 07:29:01;;;;;;;17.27;3.73;;;19.30;92.40;;;;;;4881901;29;20059;-90
2021/06/15 07:31:50;;;;;;;12.27;3.55;;;19.30;92.30;;;;;;4875754;29;20045;-88
2021/06/15 07:34:29;;;;;;;11.00;3.83;;;20.50;93.00;;;;;;4885519;29;20040;-89
2021/06/15 07:37:00;;;;;;;12.90;3.53;;;19.20;92.50;;;;;;4893868;29;20064;-89
2021/06/15 07:39:45;;;;;;;9.73;2.58;;;19.20;92.90;;;;;;4901919;29;20056;-88
2021/06/15 07:42:22;;;;;;;8.55;2.95;;;18.80;92.80;;;;;;4902854;29;20060;-88
2021/06/15 07:44:54;;;;;;;10.43;3.30;;;19.50;92.60;;;;;;4893839;29;20056;-89
2021/06/15 07:47:26;;;;;;;16.42;3.65;;;19.40;92.70;;;;;;4907464;29;20049;-90
2021/06/15 07:50:15;;;;;;;15.93;3.42;;;19.40;92.70;;;;;;4902532;29;20641;-89
2021/06/15 07:52:54;;;;;;;9.43;3.80;;;19.50;92.90;;;;;;4888678;29;20083;-88
2021/06/15 07:55:26;;;;;;;11.55;4.20;;;19.50;92.80;;;;;;4869385;29;20049;-89
2021/06/15 07:58:24;;;;;;;;;;;19.60;92.80;;;;;;4890876;29;20135;-89
2021/06/15 08:00:53;;;;;;;12.13;3.47;;;19.70;92.90;;;;;;4883523;29;19940;-88
2021/06/15 08:06:27;;;;;;;10.75;3.38;;;18.70;92.60;;;;;;4880770;29;20053;-88
2021/06/15 08:08:59;;;;;;;9.23;3.05;;;19.90;93.00;;;;;;4902320;29;20053;-89
2021/06/15 08:11:36;;;;;;;15.48;3.58;;;19.90;92.80;;;;;;4905581;29;20044;-88
2021/06/15 08:14:08;;;;;;;13.38;3.75;;;20.00;92.90;;;;;;4872740;29;20056;-89
2021/06/15 08:16:46;;;;;;;6.35;2.65;;;20.10;92.90;;;;;;4864162;29;20056;-89
2021/06/15 08:19:34;;;;;;;16.30;3.10;;;20.20;92.80;;;;;;4894172;29;20078;-89
2021/06/15 08:22:11;;;;;;;14.95;3.75;;;20.20;92.70;;;;;;4852506;29;20049;-90
2021/06/15 08:24:44;;;;;;;12.55;4.18;;;20.40;92.80;;;;;;4894371;29;20057;-89
2021/06/15 08:27:25;;;;;;;14.80;4.50;;;20.30;93.20;;;;;;4905054;29;20159;-89
2021/06/15 08:29:55;;;;;;;10.73;3.30;;;20.40;92.60;;;;;;4874996;29;20049;-90
2021/06/15 08:32:44;;;;;;;8.07;3.17;;;20.40;92.90;;;;;;4886908;29;20060;-92
2021/06/15 08:35:16;;;;;;;7.63;3.03;;;20.50;92.50;;;;;;4867077;29;20048;-89
2021/06/15 08:37:47;;;;;;;13.82;3.80;;;20.60;92.30;;;;;;4872808;29;20057;-88
2021/06/15 08:40:24;;;;;;;17.55;3.47;;;22.10;92.70;;;;;;4904247;29;20049;-88
2021/06/15 08:42:56;;;;;;;9.70;3.20;;;20.70;92.30;;;;;;4886106;29;20048;-90
2021/06/15 08:45:35;;;;;;;11.20;3.13;;;20.80;92.10;;;;;;4874148;29;20064;-88
2021/06/15 08:48:23;;;;;;;14.45;3.67;;;20.90;92.20;;;;;;4873370;29;20052;-89
2021/06/15 08:50:52;;;;;;;9.95;3.97;;;21.00;91.90;;;;;;4869325;29;20049;-88
2021/06/15 08:53:25;;;;;;;13.10;3.80;;;21.10;92.00;;;;;;4879216;29;20060;-89
2021/06/15 08:56:32;;;;;;;13.52;3.33;;;21.40;92.00;;;;;;4892150;29;20048;-90
2021/06/15 08:59:29;;;;;;;16.20;4.82;;;21.20;91.50;;;;;;4881924;29;20048;-91
2021/06/15 09:02:07;;;;;;;11.60;3.78;;;21.30;91.60;;;;;;4874955;29;20063;-89
2021/06/15 09:04:55;;;;;;;12.38;3.95;;;21.30;91.60;;;;;;4885877;29;20045;-89
2021/06/15 09:07:46;;;;;;;17.35;3.75;;;21.40;91.50;;;;;;4872175;29;20072;-89
2021/06/15 09:10:34;;;;;;;9.60;3.78;;;22.60;91.70;;;;;;4898903;29;20057;-89
2021/06/15 09:13:04;;;;;;;10.48;2.40;;;21.60;91.30;;;;;;4886331;29;20075;-88
2021/06/15 09:15:35;;;;;;;10.77;3.75;;;21.70;90.90;;;;;;4902536;29;20052;-88
2021/06/15 09:18:27;;;;;;;12.50;4.60;;;21.80;90.70;;;;;;4902232;29;20049;-90
2021/06/15 09:21:05;;;;;;;13.52;3.33;;;21.90;90.60;;;;;;4874796;29;20049;-90
2021/06/15 09:23:38;;;;;;;;;;;22.00;90.80;;;;;;4876402;29;20057;-89
2021/06/15 09:26:12;;;;;;;10.52;3.00;;;22.00;90.40;;;;;;4871692;29;19923;-89
2021/06/15 09:28:50;;;;;;;6.75;2.55;;;21.90;90.40;;;;;;4891337;29;20063;-89
2021/06/15 09:31:24;;;;;;;26.15;3.30;;;21.80;89.30;;;;;;4873196;29;20067;-90
2021/06/15 09:34:15;;;;;;;9.13;3.50;;;22.10;89.90;;;;;;4878112;29;20056;-90
2021/06/15 09:36:54;;;;;;;7.70;3.08;;;22.10;89.20;;;;;;4890447;29;20055;-88
2021/06/15 09:39:33;;;;;;;7.05;2.97;;;22.30;89.00;;;;;;4875215;29;20068;-89
2021/06/15 09:42:29;;;;;;;7.05;3.30;;;22.50;88.50;;;;;;4899762;29;20032;-88
2021/06/15 09:45:16;;;;;;;14.15;2.95;;;22.60;87.40;;;;;;4878894;29;20437;-89
2021/06/15 09:47:48;;;;;;;10.13;3.45;;;22.80;87.70;;;;;;4856717;29;20060;-89
2021/06/15 09:50:44;;;;;;;9.32;2.92;;;22.90;87.40;;;;;;4884504;29;20061;-88
2021/06/15 09:53:38;;;;;;;9.98;2.45;;;23.10;87.70;;;;;;4897540;29;20051;-91
2021/06/15 09:56:17;;;;;;;15.38;3.03;;;23.20;87.10;;;;;;4894550;29;20067;-89
2021/06/15 09:59:01;;;;;;;17.05;3.28;;;24.50;87.80;;;;;;4869457;29;20064;-90
2021/06/15 10:02:02;;;;;;;11.55;3.10;;;23.40;85.90;;;;;;4854286;29;20052;-90
2021/06/15 10:04:50;;;;;;;6.38;2.10;;;23.30;85.10;;;;;;4895461;29;20064;-90
2021/06/15 10:07:31;;;;;;;10.10;2.65;;;23.00;85.60;;;;;;4870099;29;20064;-90
2021/06/15 10:10:29;;;;;;;9.30;2.42;;;23.50;84.70;;;;;;4862142;29;20048;-90
2021/06/15 10:13:11;;;;;;;8.88;3.22;;;23.70;83.90;;;;;;4890255;29;20043;-89
2021/06/15 10:15:47;;;;;;;8.80;2.22;;;23.90;84.20;;;;;;4870562;29;20056;-88
2021/06/15 10:18:21;;;;;;;10.30;2.78;;;24.10;83.70;;;;;;4871262;29;20052;-88
2021/06/15 10:21:05;;;;;;;7.55;2.38;;;24.20;83.60;;;;;;4915279;29;20052;-88
2021/06/15 10:23:35;;;;;;;7.95;2.75;;;24.40;83.50;;;;;;4897837;29;20378;-90
2021/06/15 10:26:06;;;;;;;12.07;2.63;;;24.30;82.60;;;;;;4855560;29;20619;-87
2021/06/15 10:28:40;;;;;;;13.15;2.15;;;24.40;82.30;;;;;;4894765;29;20197;-89
2021/06/15 10:31:11;;;;;;;10.10;3.30;;;24.40;82.70;;;;;;4882595;29;20058;-89
2021/06/15 10:33:45;;;;;;;13.18;3.22;;;24.60;81.60;;;;;;4905763;29;20059;-89
2021/06/15 10:36:16;;;;;;;6.57;2.30;;;24.60;81.50;;;;;;4887203;29;20067;-88
2021/06/15 10:38:50;;;;;;;5.43;1.80;;;24.50;81.00;;;;;;4897108;29;20064;-89
2021/06/15 10:41:26;;;;;;;9.73;2.60;;;24.40;80.70;;;;;;4909798;29;20053;-89
2021/06/15 10:44:00;;;;;;;9.55;2.70;;;24.50;81.00;;;;;;4882184;29;20057;-88
2021/06/15 10:46:42;;;;;;;5.68;1.67;;;24.40;80.50;;;;;;4883546;29;20049;-88
2021/06/15 10:49:16;;;;;;;6.90;1.67;;;24.30;80.10;;;;;;4883812;29;20061;-90
2021/06/15 10:51:53;;;;;;;5.53;2.15;;;24.30;80.00;;;;;;4882403;29;20048;-89
2021/06/15 10:54:40;;;;;;;5.05;2.35;;;24.40;80.00;;;;;;4878169;29;20053;-88
2021/06/15 10:57:29;;;;;;;6.47;1.58;;;24.50;77.90;;;;;;4879101;29;20087;-88
2021/06/15 11:00:09;;;;;;;4.93;1.95;;;24.70;76.70;;;;;;4904601;29;20048;-89
2021/06/15 11:03:20;;;;;;;4.20;1.00;;;24.70;76.90;;;;;;4895796;29;20052;-88
2021/06/15 11:05:59;;;;;;;10.52;2.67;;;24.80;74.70;;;;;;4900249;29;20052;-90
2021/06/15 11:08:33;;;;;;;7.50;1.27;;;24.90;75.00;;;;;;4856487;29;20052;-90
2021/06/15 11:11:19;;;;;;;3.25;1.00;;;25.00;74.50;;;;;;4897038;29;20485;-88
2021/06/15 11:13:56;;;;;;;7.13;1.52;;;25.10;73.40;;;;;;4902400;29;20057;-89
2021/06/15 11:16:33;;;;;;;5.00;0.88;;;25.10;73.80;;;;;;4871194;29;20458;-89
2021/06/15 11:19:38;;;;;;;6.10;1.20;;;25.20;73.90;;;;;;4897797;29;20059;-89
2021/06/15 11:22:08;;;;;;;4.47;1.15;;;25.30;73.30;;;;;;4864406;29;20064;-89
2021/06/15 11:24:39;;;;;;;3.95;1.40;;;25.40;73.70;;;;;;4901315;29;20052;-89
2021/06/15 11:27:36;;;;;;;2.28;1.27;;;25.60;73.50;;;;;;4897989;29;20630;-89
2021/06/15 11:30:11;;;;;;;4.40;1.20;;;25.60;73.30;;;;;;4864871;29;20064;-88
2021/06/15 11:32:59;;;;;;;5.32;1.40;;;25.60;73.30;;;;;;4884031;29;20408;-89
2021/06/15 11:35:32;;;;;;;4.97;1.33;;;25.50;73.30;;;;;;4886621;29;20433;-89
2021/06/15 11:38:12;;;;;;;5.03;1.10;;;25.50;74.00;;;;;;4856127;29;20143;-88
2021/06/15 11:40:45;;;;;;;4.70;2.10;;;25.50;74.00;;;;;;4866909;29;20261;-89
2021/06/15 11:43:20;;;;;;;7.28;1.60;;;25.70;73.90;;;;;;4902122;29;20183;-89
2021/06/15 11:45:53;;;;;;;7.82;1.77;;;25.30;73.70;;;;;;4866058;29;20056;-89
2021/06/15 11:48:33;;;;;;;7.75;1.20;;;25.80;74.20;;;;;;4861167;29;20072;-89
2021/06/15 11:51:26;;;;;;;2.90;1.27;;;25.70;74.00;;;;;;4862050;29;20063;-89
2021/06/15 11:54:02;;;;;;;6.45;1.17;;;25.60;74.00;;;;;;4888624;29;20053;-89
2021/06/15 11:56:34;;;;;;;3.33;1.25;;;25.70;75.00;;;;;;4898749;29;20065;-89
2021/06/15 11:59:11;;;;;;;7.22;1.75;;;25.80;74.00;;;;;;4870016;29;20085;-90
2021/06/15 12:01:45;;;;;;;9.35;1.48;;;25.90;73.40;;;;;;4874338;29;20068;-90
2021/06/15 12:04:17;;;;;;;5.05;1.27;;;26.00;72.80;;;;;;4894664;29;20052;-91
2021/06/15 12:07:16;;;;;;;3.88;1.88;;;26.00;72.90;;;;;;4883084;29;20053;-90
2021/06/15 12:10:14;;;;;;;2.80;1.20;;;26.10;72.20;;;;;;4907645;29;20060;-90
2021/06/15 12:13:00;;;;;;;4.13;1.70;;;26.10;72.30;;;;;;4864587;29;20523;-90
2021/06/15 12:16:02;;;;;;;3.17;1.63;;;26.30;73.10;;;;;;4871486;29;20544;-89
2021/06/15 12:18:55;;;;;;;4.30;2.03;;;26.50;71.90;;;;;;4875242;29;20064;-89
2021/06/15 12:21:43;;;;;;;14.20;1.63;;;26.50;72.30;;;;;;4902614;29;20045;-91
2021/06/15 12:24:49;;;;;;;6.38;1.33;;;26.70;72.60;;;;;;4908455;29;20052;-92
2021/06/15 12:47:46;;;;;;;8.73;1.40;;;28.10;70.20;;;;;;4868519;29;20050;-90
2021/06/15 12:50:32;;;;;;;1.70;1.38;;;28.10;69.20;;;;;;4844600;29;20068;-87
2021/06/15 12:53:11;;;;;;;5.50;1.67;;;28.10;70.50;;;;;;4846482;29;20077;-89
2021/06/15 12:55:51;;;;;;;5.22;1.48;;;28.10;69.10;;;;;;4852859;29;20061;-88
2021/06/15 12:58:50;;;;;;;4.57;2.05;;;28.20;69.00;;;;;;4848826;29;20057;-90
2021/06/15 13:01:38;;;;;;;6.60;1.70;;;28.20;68.80;;;;;;4823196;29;20030;-90
2021/06/15 13:05:33;;;;;;;6.65;1.63;;;28.30;69.50;;;;;;4845866;29;20060;-91
2021/06/15 13:09:03;;;;;;;8.52;1.20;;;28.30;68.50;;;;;;4833173;29;20058;-92
2021/06/15 13:12:28;;;;;;;8.95;2.15;;;28.50;67.80;;;;;;4835875;29;20085;-89
2021/06/15 13:15:39;;;;;;;6.88;1.52;;;28.80;67.80;;;;;;4845324;29;20053;-89
2021/06/15 13:18:33;;;;;;;5.75;1.73;;;28.80;68.00;;;;;;4860197;29;20050;-91
2021/06/15 13:21:14;;;;;;;5.55;1.40;;;28.90;67.90;;;;;;4856450;29;20050;-90
2021/06/15 13:24:49;;;;;;;5.77;1.30;;;28.30;66.90;;;;;;4853276;29;20052;-91
2021/06/15 13:27:55;;;;;;;4.43;1.20;;;28.90;66.50;;;;;;4847265;29;20061;-91
2021/06/15 13:31:23;;;;;;;2.90;1.65;;;30.30;67.40;;;;;;4850803;29;20054;-91
2021/06/15 13:34:33;;;;;;;5.03;1.35;;;28.40;66.00;;;;;;4766933;30;20461;-91
2021/06/15 13:37:54;;;;;;;5.78;2.08;;;28.90;66.20;;;;;;4751218;30;20125;-90
2021/06/15 13:41:08;;;;;;;4.75;1.38;;;29.00;66.00;;;;;;4739734;30;20076;-91
2021/06/15 13:43:52;;;;;;;10.45;1.48;;;29.10;66.60;;;;;;4722964;30;20169;-92
2021/06/15 13:46:36;;;;;;;5.88;1.17;;;29.30;66.30;;;;;;4751396;30;20466;-91
2021/06/15 13:50:32;;;;;;;20.48;5.57;;;29.30;65.60;;;;;;4783670;30;20044;-92
2021/06/15 13:53:50;;;;;;;6.85;1.85;;;29.40;65.30;;;;;;4784095;30;20047;-92
2021/06/15 13:56:45;;;;;;;4.28;1.05;;;29.50;64.90;;;;;;4800478;29;20059;-91
2021/06/15 13:59:35;;;;;;;8.20;1.40;;;30.00;65.30;;;;;;4853538;24;20054;-91
2021/06/15 14:02:22;;;;;;;4.75;1.75;;;30.10;64.60;;;;;;4885339;23;20052;-91
2021/06/15 14:05:21;;;;;;;10.27;1.63;;;30.20;64.60;;;;;;4879655;29;20053;-91
2021/06/15 14:08:08;;;;;;;3.55;1.30;;;30.50;63.80;;;;;;4872369;29;20063;-92
2021/06/15 14:11:04;;;;;;;8.40;1.80;;;29.30;63.00;;;;;;4914742;29;20138;-91
2021/06/15 14:13:55;;;;;;;6.13;1.42;;;30.80;63.30;;;;;;4874716;29;20060;-91
2021/06/15 14:16:47;;;;;;;6.07;1.80;;;30.90;62.90;;;;;;4889568;29;20055;-89
2021/06/15 14:19:54;;;;;;;10.88;1.67;;;31.30;63.10;;;;;;4882021;29;20533;-88
2021/06/15 14:22:23;;;;;;;4.90;1.13;;;31.40;62.30;;;;;;4886094;29;20468;-87
2021/06/15 14:24:52;;;;;;;4.93;1.45;;;31.50;60.90;;;;;;4894105;29;20048;-87
2021/06/15 14:27:21;;;;;;;6.10;1.70;;;31.50;61.50;;;;;;4904602;29;20056;-88
2021/06/15 14:29:50;;;;;;;4.90;1.33;;;31.60;61.30;;;;;;4894299;29;20048;-87
2021/06/15 14:32:18;;;;;;;2.42;1.10;;;31.70;61.10;;;;;;4885363;29;20413;-88
2021/06/15 14:34:48;;;;;;;7.97;1.38;;;31.70;60.90;;;;;;4908046;29;20063;-89
2021/06/15 14:37:36;;;;;;;4.88;1.17;;;32.00;60.80;;;;;;4912331;29;20401;-89
2021/06/15 14:40:11;;;;;;;10.93;1.65;;;32.30;60.20;;;;;;4881197;29;20068;-89
2021/06/15 14:42:42;;;;;;;4.90;1.77;;;32.20;59.90;;;;;;4890998;29;20052;-88
2021/06/15 14:45:17;;;;;;;7.43;1.40;;;32.70;59.80;;;;;;4905371;29;20721;-87
2021/06/15 14:47:48;;;;;;;4.88;2.03;;;32.90;59.40;;;;;;4862069;29;20046;-91
2021/06/15 14:50:32;;;;;;;7.47;1.25;;;33.10;58.90;;;;;;4862414;29;20067;-87
2021/06/15 14:53:04;;;;;;;5.03;1.15;;;33.10;58.60;;;;;;4909595;29;20061;-88
2021/06/15 14:55:37;;;;;;;10.20;1.90;;;33.00;58.30;;;;;;4878023;29;20063;-89
2021/06/15 14:58:13;;;;;;;7.93;1.60;;;32.80;58.30;;;;;;4887380;29;20053;-87
2021/06/15 15:00:50;;;;;;;9.65;2.13;;;32.50;58.40;;;;;;4887120;29;20048;-90
2021/06/15 15:03:25;;;;;;;4.75;1.73;;;32.30;59.40;;;;;;4891979;29;20051;-89
2021/06/15 15:05:54;;;;;;;5.70;1.15;;;32.20;58.90;;;;;;4876253;29;20049;-89
2021/06/15 15:08:25;;;;;;;6.00;1.23;;;32.30;59.00;;;;;;4905253;29;20056;-88
2021/06/15 15:10:56;;;;;;;8.50;1.08;;;32.50;59.00;;;;;;4888154;29;20045;-88
2021/06/15 15:13:25;;;;;;;3.83;1.60;;;32.70;58.80;;;;;;4866849;29;20053;-88
2021/06/15 15:15:54;;;;;;;8.52;1.42;;;33.00;58.20;;;;;;4900963;29;20061;-89
2021/06/15 15:18:24;;;;;;;11.63;1.98;;;33.10;58.30;;;;;;4897249;29;20060;-89
2021/06/15 15:21:12;;;;;;;7.85;1.73;;;33.30;57.90;;;;;;4882347;29;20056;-92
2021/06/15 15:23:47;;;;;;;7.45;1.25;;;33.40;57.70;;;;;;4889666;29;20045;-89
2021/06/15 15:26:18;;;;;;;6.22;2.47;;;33.60;57.40;;;;;;4875544;29;20061;-88
2021/06/15 15:28:52;;;;;;;7.25;1.42;;;33.60;57.50;;;;;;4905648;29;20057;-88
2021/06/15 15:31:25;;;;;;;5.22;1.50;;;33.70;57.40;;;;;;4883566;29;20059;-88
2021/06/15 15:34:01;;;;;;;6.72;1.83;;;33.60;57.40;;;;;;4884916;29;20077;-88
2021/06/15 15:36:33;;;;;;;10.70;3.05;;;33.60;57.50;;;;;;4876461;29;20045;-89
2021/06/15 15:39:07;;;;;;;7.57;1.85;;;33.70;57.40;;;;;;4904421;29;20057;-89
2021/06/15 15:41:35;;;;;;;10.52;1.38;;;33.60;57.10;;;;;;4891984;29;20080;-88
2021/06/15 15:44:10;;;;;;;9.95;1.70;;;33.80;57.50;;;;;;4874280;29;20182;-88
2021/06/15 15:46:44;;;;;;;7.30;1.45;;;33.90;57.00;;;;;;4888882;29;20060;-90
2021/06/15 15:49:41;;;;;;;5.20;1.60;;;33.00;55.90;;;;;;4886535;29;20050;-89
2021/06/15 15:52:44;;;;;;;8.45;1.60;;;34.30;56.90;;;;;;4886836;29;20412;-88
2021/06/15 15:55:16;;;;;;;3.25;1.15;;;34.30;57.10;;;;;;4886398;29;20527;-90
2021/06/15 15:57:56;;;;;;;10.20;1.42;;;34.40;56.60;;;;;;4893956;29;20048;-88
2021/06/15 16:00:51;;;;;;;2.13;1.05;;;34.40;56.40;;;;;;4862428;29;20060;-90
2021/06/15 16:03:22;;;;;;;2.63;0.98;;;34.40;56.30;;;;;;4892623;29;20049;-88
2021/06/15 16:06:21;;;;;;;3.80;1.35;;;33.70;56.40;;;;;;4882256;29;20069;-85
2021/06/15 16:08:56;;;;;;;4.90;1.17;;;34.20;55.90;;;;;;4893694;29;20049;-88
2021/06/15 16:11:39;;;;;;;13.95;1.77;;;34.10;56.50;;;;;;4864004;29;20050;-89
2021/06/15 16:14:23;;;;;;;5.32;1.52;;;34.10;56.80;;;;;;4882240;29;20049;-89
2021/06/15 16:16:57;;;;;;;4.82;1.33;;;33.90;56.10;;;;;;4894039;29;20059;-90
2021/06/15 16:19:32;;;;;;;4.50;1.38;;;33.80;56.00;;;;;;4866675;29;20068;-90
2021/06/15 16:22:01;;;;;;;4.18;1.27;;;34.00;56.10;;;;;;4879817;29;20065;-90
2021/06/15 16:24:31;;;;;;;;;;;33.90;56.00;;;;;;4885447;29;20044;-89
2021/06/15 16:27:02;;;;;;;2.80;1.13;;;33.80;55.90;;;;;;4878330;29;19920;-88
2021/06/15 16:29:30;;;;;;;6.95;2.15;;;33.80;56.00;;;;;;4880483;29;20300;-89
2021/06/15 16:32:26;;;;;;;8.35;1.95;;;33.80;56.10;;;;;;4909553;29;20057;-88
2021/06/15 16:34:57;;;;;;;4.10;1.50;;;33.80;55.60;;;;;;4883768;29;20064;-89
2021/06/15 16:37:29;;;;;;;14.02;2.08;;;33.80;55.60;;;;;;4893252;29;20071;-88
2021/06/15 16:40:00;;;;;;;12.63;2.30;;;33.80;56.00;;;;;;4897920;29;20053;-87
2021/06/15 16:42:32;;;;;;;7.43;1.38;;;33.80;55.30;;;;;;4892230;29;20055;-89
2021/06/15 16:45:07;;;;;;;7.20;1.30;;;33.70;55.40;;;;;;4899877;29;20037;-89
2021/06/15 16:47:42;;;;;;;8.30;1.60;;;33.60;55.40;;;;;;4881359;29;20063;-90
2021/06/15 16:50:14;;;;;;;3.58;1.00;;;34.00;56.10;;;;;;4891423;29;20037;-89
2021/06/15 16:52:50;;;;;;;11.50;1.10;;;33.40;55.50;;;;;;4896654;29;20049;-89
2021/06/15 16:55:39;;;;;;;5.85;1.45;;;33.40;55.60;;;;;;4905627;29;20041;-87
2021/06/15 16:58:08;;;;;;;8.15;1.80;;;33.10;55.70;;;;;;4904604;29;20060;-90
2021/06/15 17:00:37;;;;;;;3.53;1.55;;;33.10;56.30;;;;;;4890586;29;20045;-89
2021/06/15 17:03:08;;;;;;;8.43;1.80;;;33.00;55.80;;;;;;4877156;29;20067;-89
2021/06/15 17:05:39;;;;;;;10.13;1.80;;;32.90;56.20;;;;;;4892501;29;20031;-88
2021/06/15 17:08:20;;;;;;;10.65;2.00;;;32.80;56.30;;;;;;4892973;29;20477;-88
2021/06/15 17:10:51;;;;;;;2.92;1.17;;;32.70;56.10;;;;;;4901420;29;20053;-87
2021/06/15 17:13:25;;;;;;;10.82;2.30;;;32.80;57.20;;;;;;4889604;29;20599;-87
2021/06/15 17:15:55;;;;;;;8.38;1.98;;;32.70;56.40;;;;;;4887964;29;20065;-87
2021/06/15 17:18:34;;;;;;;9.23;1.88;;;32.60;56.90;;;;;;4887817;29;20521;-87
2021/06/15 17:21:03;;;;;;;5.97;1.30;;;32.40;57.40;;;;;;4874593;29;20053;-87
2021/06/15 17:23:39;;;;;;;3.55;1.10;;;32.20;57.00;;;;;;4889242;29;20059;-87
2021/06/15 17:26:11;;;;;;;10.13;1.63;;;32.20;57.50;;;;;;4875776;29;20083;-86
2021/06/15 17:28:39;;;;;;;7.25;1.40;;;32.20;57.40;;;;;;4901585;29;20056;-88
2021/06/15 17:31:08;;;;;;;7.63;1.70;;;32.30;58.50;;;;;;4893535;29;20057;-88
2021/06/15 17:33:43;;;;;;;8.60;1.55;;;32.40;57.20;;;;;;4863069;29;20046;-88
2021/06/15 17:36:17;;;;;;;6.45;1.58;;;32.50;57.20;;;;;;4876985;29;20057;-88
2021/06/15 17:38:47;;;;;;;6.78;1.52;;;32.60;57.00;;;;;;4862818;29;20045;-88
2021/06/15 17:41:21;;;;;;;7.93;1.50;;;32.40;56.40;;;;;;4875800;29;20065;-87
2021/06/15 17:43:52;;;;;;;6.70;1.20;;;32.60;56.50;;;;;;4886017;29;20065;-87
2021/06/15 17:46:23;;;;;;;7.03;1.95;;;32.60;56.70;;;;;;4866531;29;20057;-88
2021/06/15 17:49:16;;;;;;;6.50;1.63;;;32.60;56.60;;;;;;4930331;23;20068;-89
2021/06/15 17:52:02;;;;;;;10.68;2.05;;;32.60;56.70;;;;;;4909320;29;20044;-89
2021/06/15 17:54:36;;;;;;;8.40;1.70;;;32.30;56.70;;;;;;4878524;29;20054;-89
2021/06/15 17:57:10;;;;;;;8.27;1.52;;;32.20;56.60;;;;;;4893907;29;20059;-87
2021/06/15 17:59:44;;;;;;;7.75;1.67;;;31.90;56.80;;;;;;4877348;29;20063;-87
2021/06/15 18:02:14;;;;;;;;;;;31.50;57.10;;;;;;4895893;29;20079;-87
2021/06/15 18:04:48;;;;;;;8.75;2.08;;;31.30;57.50;;;;;;4890291;29;19946;-87
2021/06/15 18:07:26;;;;;;;2.85;1.52;;;31.20;57.80;;;;;;4878145;29;20065;-87
2021/06/15 18:10:10;;;;;;;6.18;1.55;;;31.10;57.80;;;;;;4891174;29;20060;-87
2021/06/15 18:12:38;;;;;;;3.33;1.23;;;31.10;57.80;;;;;;4894823;29;20072;-87
2021/06/15 18:15:25;;;;;;;7.90;1.70;;;31.00;58.10;;;;;;4884885;29;20270;-87
2021/06/15 18:18:04;;;;;;;7.20;2.45;;;30.60;58.10;;;;;;4883090;29;20045;-86
2021/06/15 18:20:37;;;;;;;10.98;4.90;;;30.30;58.50;;;;;;4885974;29;20057;-87
2021/06/15 18:23:08;;;;;;;8.93;2.08;;;30.00;59.20;;;;;;4883468;29;20696;-88
2021/06/15 18:25:36;;;;;;;6.93;1.75;;;29.60;59.50;;;;;;4871396;29;20061;-87
2021/06/15 18:28:09;;;;;;;8.77;1.63;;;29.30;60.40;;;;;;4903075;29;20067;-86
2021/06/15 18:30:40;;;;;;;3.78;1.73;;;29.00;60.50;;;;;;4887940;29;20405;-86
2021/06/15 18:33:09;;;;;;;9.55;2.08;;;28.80;61.10;;;;;;4908855;29;20321;-87
2021/06/15 18:35:38;;;;;;;5.00;1.63;;;28.60;61.30;;;;;;4884773;29;20480;-87
2021/06/15 18:38:11;;;;;;;6.43;2.22;;;28.40;61.20;;;;;;4887781;29;20057;-87
2021/06/15 18:40:39;;;;;;;10.07;1.52;;;28.20;62.10;;;;;;4890448;29;20060;-86
2021/06/15 18:43:13;;;;;;;10.95;1.40;;;28.20;62.00;;;;;;4876545;29;20053;-85
2021/06/15 18:45:46;;;;;;;4.30;1.30;;;28.20;62.10;;;;;;4879441;29;20048;-87
2021/06/15 18:48:19;;;;;;;6.05;1.50;;;28.20;62.10;;;;;;4880423;29;20073;-91
2021/06/15 18:50:52;;;;;;;7.22;1.30;;;28.10;62.40;;;;;;4894348;29;20048;-87
2021/06/15 18:53:21;;;;;;;4.25;1.55;;;27.80;62.80;;;;;;4900325;29;20057;-87
2021/06/15 18:55:51;;;;;;;5.22;1.50;;;27.40;63.40;;;;;;4887086;29;20056;-88
2021/06/15 18:58:44;;;;;;;7.78;1.38;;;27.10;63.90;;;;;;4902072;29;20134;-88
2021/06/15 19:01:14;;;;;;;3.63;1.15;;;26.70;65.00;;;;;;4904738;29;20055;-87
2021/06/15 19:03:56;;;;;;;5.18;1.20;;;26.40;65.60;;;;;;4890753;29;20359;-87
2021/06/15 19:06:34;;;;;;;5.13;1.77;;;25.80;66.00;;;;;;4891636;29;20051;-87
2021/06/15 19:09:05;;;;;;;9.10;1.83;;;25.50;67.10;;;;;;4903074;29;20048;-87
2021/06/15 19:11:36;;;;;;;11.48;1.83;;;25.20;67.90;;;;;;4892027;29;20061;-87
2021/06/15 19:14:07;;;;;;;8.07;1.50;;;24.90;68.80;;;;;;4924601;23;20053;-86
2021/06/15 19:16:48;;;;;;;2.92;1.23;;;24.70;68.50;;;;;;4889570;29;20057;-86
2021/06/15 19:19:35;;;;;;;4.32;1.60;;;24.50;69.20;;;;;;4892734;29;20048;-86
2021/06/15 19:22:11;;;;;;;9.15;2.30;;;24.30;68.70;;;;;;4908801;29;20067;-86
2021/06/15 19:24:50;;;;;;;6.30;1.45;;;24.10;69.10;;;;;;4881413;29;20049;-87
2021/06/15 19:27:40;;;;;;;9.98;2.08;;;24.00;69.30;;;;;;4904845;29;20052;-87
2021/06/15 19:30:22;;;;;;;7.25;1.35;;;23.90;70.10;;;;;;4905187;29;20045;-86
2021/06/15 19:32:52;;;;;;;7.25;1.60;;;23.80;70.50;;;;;;4859244;29;20048;-86
2021/06/15 19:35:23;;;;;;;9.95;2.70;;;23.70;70.80;;;;;;4890170;29;20059;-87
2021/06/15 19:37:52;;;;;;;7.37;1.50;;;23.10;71.40;;;;;;4859686;29;20061;-86
2021/06/15 19:40:32;;;;;;;6.97;2.22;;;23.40;72.50;;;;;;4900774;29;20049;-88
2021/06/15 19:43:02;;;;;;;;;;;23.30;71.50;;;;;;4873793;29;20499;-86
2021/06/15 19:45:33;;;;;;;5.40;2.08;;;23.10;73.40;;;;;;4879576;29;19928;-86
2021/06/15 19:48:09;;;;;;;10.57;2.42;;;23.00;72.10;;;;;;4891009;29;20053;-86
2021/06/15 19:50:41;;;;;;;7.28;1.60;;;22.80;72.40;;;;;;4886495;29;20048;-87
2021/06/15 19:53:23;;;;;;;12.00;2.70;;;22.70;72.60;;;;;;4873255;29;20056;-87
2021/06/15 19:56:04;;;;;;;5.22;1.95;;;22.70;72.80;;;;;;4906450;29;20050;-86
2021/06/15 19:58:39;;;;;;;13.70;1.92;;;22.60;73.80;;;;;;4883383;29;20056;-86
2021/06/15 20:01:09;;;;;;;4.47;1.85;;;23.50;74.50;;;;;;4880388;29;20654;-87
2021/06/15 20:03:45;;;;;;;6.57;1.88;;;22.40;73.80;;;;;;4878512;29;20064;-86
2021/06/15 20:06:20;;;;;;;4.43;1.90;;;22.30;74.10;;;;;;4902201;29;20053;-87
2021/06/15 20:08:51;;;;;;;7.35;2.08;;;22.10;74.40;;;;;;4884928;29;20053;-87
2021/06/15 20:11:22;;;;;;;5.10;1.90;;;22.00;74.90;;;;;;4874162;29;20052;-86
2021/06/15 20:13:55;;;;;;;7.88;2.10;;;22.00;75.70;;;;;;4877328;29;20573;-87
2021/06/15 20:16:45;;;;;;;10.90;2.78;;;22.00;75.30;;;;;;4891844;29;20067;-88
2021/06/15 20:19:24;;;;;;;8.85;2.22;;;21.90;74.90;;;;;;4877276;29;20049;-87
2021/06/15 20:21:57;;;;;;;10.35;2.80;;;21.90;76.20;;;;;;4856687;29;20053;-87
2021/06/15 20:24:42;;;;;;;4.55;1.65;;;21.80;75.40;;;;;;4852373;29;20045;-85
2021/06/15 20:27:21;;;;;;;8.88;2.00;;;21.70;75.60;;;;;;4868943;29;20053;-87
2021/06/15 20:30:07;;;;;;;12.50;2.10;;;21.70;76.10;;;;;;4857153;29;20055;-86
2021/06/15 20:32:38;;;;;;;8.80;2.00;;;21.50;76.30;;;;;;4889690;29;20061;-86
2021/06/15 20:35:13;;;;;;;5.43;1.95;;;21.50;76.50;;;;;;4864817;29;20064;-88
2021/06/15 20:38:14;;;;;;;6.35;2.92;;;21.40;76.80;;;;;;4896963;29;20057;-86
2021/06/15 20:41:01;;;;;;;12.68;2.75;;;21.40;77.70;;;;;;4855891;29;20061;-86
2021/06/15 20:43:42;;;;;;;10.00;2.25;;;21.40;76.90;;;;;;4866679;29;20060;-86
2021/06/15 20:46:10;;;;;;;9.82;2.20;;;22.00;77.90;;;;;;4866722;29;20068;-85
2021/06/15 20:48:40;;;;;;;8.00;2.13;;;21.40;77.60;;;;;;4868815;29;20053;-87
2021/06/15 20:51:12;;;;;;;7.53;2.17;;;21.40;77.40;;;;;;4881266;29;20059;-87
2021/06/15 20:53:42;;;;;;;9.20;2.35;;;21.40;78.70;;;;;;4853752;29;20049;-88
2021/06/15 20:56:22;;;;;;;8.40;2.17;;;21.40;78.00;;;;;;4870267;29;20057;-86